createdAt,value
2019-03-10T00:00:45.459Z,99739.48
2019-03-10T00:03:36.288Z,99741.15
2019-03-10T00:06:07.129Z,99731.55
2019-03-10T00:08:40.955Z,99739.18
2019-03-10T00:11:12.848Z,99718.89
2019-03-10T00:13:43.605Z,99726.70
2019-03-10T00:16:14.441Z,99724.31
2019-03-10T00:21:55.687Z,99736.43
2019-03-10T00:24:26.479Z,99718.47
2019-03-10T00:27:17.368Z,99716.62
2019-03-10T00:29:49.151Z,99723.16
2019-03-10T00:35:21.460Z,99733.50
2019-03-10T00:41:21.457Z,99740.76
2019-03-10T00:44:31.050Z,99735.20
2019-03-10T00:47:39.865Z,99724.53
2019-03-10T00:50:34.144Z,99724.25
2019-03-10T00:53:23.946Z,99708.00
2019-03-10T00:56:14.107Z,99704.79
2019-03-10T00:58:45.118Z,99702.88
2019-03-10T01:01:16.006Z,99697.66
2019-03-10T01:04:39.281Z,99706.80
2019-03-10T01:07:02.194Z,99694.23
2019-03-10T01:09:52.347Z,99690.66
2019-03-10T01:12:43.443Z,99681.78
2019-03-10T01:15:35.806Z,99680.08
2019-03-10T01:18:07.383Z,99675.14
2019-03-10T01:20:52.392Z,99684.52
2019-03-10T01:23:13.422Z,99690.29
2019-03-10T01:26:03.254Z,99673.10
2019-03-10T01:28:34.041Z,99677.61
2019-03-10T01:31:19.672Z,99678.66
2019-03-10T01:37:03.666Z,99660.11
2019-03-10T01:39:34.512Z,99676.02
2019-03-10T01:42:24.439Z,99672.14
2019-03-10T01:48:08.661Z,99650.23
2019-03-10T01:50:41.595Z,99641.44
2019-03-10T01:53:31.984Z,99632.18
2019-03-10T01:59:03.586Z,99602.45
2019-03-10T02:01:34.409Z,99601.42
2019-03-10T02:04:24.987Z,99593.71
2019-03-10T02:10:27.159Z,99572.83
2019-03-10T02:13:02.693Z,99552.78
2019-03-10T02:22:17.984Z,99530.72
2019-03-10T02:24:48.732Z,99518.59
2019-03-10T02:27:24.185Z,99512.82
2019-03-10T02:36:19.449Z,99480.46
2019-03-10T02:39:21.950Z,99479.19
2019-03-10T02:41:53.888Z,99483.33
2019-03-10T02:47:08.087Z,99456.05
2019-03-10T02:49:38.787Z,99439.84
2019-03-10T02:52:10.024Z,99417.25
2019-03-10T02:54:40.778Z,99409.21
2019-03-10T02:57:11.606Z,99412.41
2019-03-10T02:59:42.466Z,99408.07
2019-03-10T03:02:13.222Z,99396.63
2019-03-10T03:04:43.997Z,99386.49
2019-03-10T03:07:15.568Z,99389.50
2019-03-10T03:09:46.351Z,99388.58
2019-03-10T03:12:17.087Z,99361.11
2019-03-10T03:14:53.668Z,99386.80
2019-03-10T03:17:24.024Z,99391.66
2019-03-10T03:19:55.640Z,99391.36
2019-03-10T03:22:26.317Z,99397.31
2019-03-10T03:24:57.986Z,99395.44
2019-03-10T03:27:29.007Z,99389.75
2019-03-10T03:30:01.776Z,99377.02
2019-03-10T03:32:32.598Z,99366.45
2019-03-10T03:35:28.940Z,99372.13
2019-03-10T03:38:00.307Z,99363.79
2019-03-10T03:40:31.188Z,99356.89
2019-03-10T03:43:02.908Z,99361.22
2019-03-10T03:45:33.703Z,99354.36
2019-03-10T03:48:04.699Z,99357.91
2019-03-10T03:50:36.609Z,99358.08
2019-03-10T03:53:08.776Z,99342.16
2019-03-10T03:55:39.651Z,99344.43
2019-03-10T03:58:11.442Z,99327.20
2019-03-10T04:00:45.960Z,99310.47
2019-03-10T04:03:17.548Z,99305.91
2019-03-10T04:05:48.283Z,99288.63
2019-03-10T04:08:19.035Z,99270.78
2019-03-10T04:10:53.494Z,99261.30
2019-03-10T04:13:25.264Z,99239.36
2019-03-10T04:15:56.866Z,99241.20
2019-03-10T04:18:27.635Z,99222.13
2019-03-10T04:21:00.203Z,99221.62
2019-03-10T04:23:31.497Z,99223.67
2019-03-10T04:26:03.394Z,99223.36
2019-03-10T04:28:34.887Z,99213.97
2019-03-10T04:31:05.746Z,99198.92
2019-03-10T04:33:37.910Z,99193.67
2019-03-10T04:36:09.077Z,99180.55
2019-03-10T04:38:39.876Z,99178.52
2019-03-10T04:41:10.653Z,99170.78
2019-03-10T04:43:42.619Z,99158.42
2019-03-10T04:46:15.371Z,99153.38
2019-03-10T04:48:47.154Z,99144.38
2019-03-10T04:51:17.863Z,99137.69
2019-03-10T04:53:49.519Z,99137.69
2019-03-10T04:56:49.367Z,99139.74
2019-03-10T04:59:21.016Z,99137.08
2019-03-10T05:01:52.257Z,99126.87
2019-03-10T05:04:23.085Z,99117.30
2019-03-10T05:06:54.777Z,99110.80
2019-03-10T05:09:25.532Z,99101.21
2019-03-10T05:11:56.367Z,99097.95
2019-03-10T05:14:28.042Z,99098.89
2019-03-10T05:17:01.111Z,99088.48
2019-03-10T05:19:31.917Z,99091.37
2019-03-10T05:22:02.648Z,99095.26
2019-03-10T05:24:33.420Z,99076.88
2019-03-10T05:27:05.043Z,99072.23
2019-03-10T05:29:36.642Z,99063.28
2019-03-10T05:32:07.360Z,99064.61
2019-03-10T05:34:38.706Z,99055.78
2019-03-10T05:37:10.451Z,99046.40
2019-03-10T05:39:43.591Z,99043.62
2019-03-10T05:42:15.196Z,99033.34
2019-03-10T05:44:45.969Z,99026.87
2019-03-10T05:47:17.915Z,99016.45
2019-03-10T05:49:48.583Z,99004.84
2019-03-10T05:52:19.337Z,98995.02
2019-03-10T05:54:52.399Z,98990.34
2019-03-10T05:57:23.113Z,98968.43
2019-03-10T05:59:53.955Z,98974.71
2019-03-10T06:02:25.196Z,98956.83
2019-03-10T06:04:56.939Z,98959.42
2019-03-10T06:07:28.499Z,98941.03
2019-03-10T06:09:59.180Z,98945.09
2019-03-10T06:12:29.912Z,98931.11
2019-03-10T06:15:01.803Z,98916.89
2019-03-10T06:17:35.019Z,98908.50
2019-03-10T06:20:08.366Z,98908.50
2019-03-10T06:22:40.246Z,98910.50
2019-03-10T06:25:18.844Z,98897.19
2019-03-10T06:27:49.035Z,98893.59
2019-03-10T06:30:22.143Z,98885.57
2019-03-10T06:32:52.811Z,98883.73
2019-03-10T06:35:23.961Z,98863.05
2019-03-10T06:37:53.649Z,98860.61
2019-03-10T06:40:31.589Z,98856.68
2019-03-10T06:42:55.366Z,98842.47
2019-03-10T06:45:45.210Z,98829.11
2019-03-10T06:48:16.360Z,98830.36
2019-03-10T06:50:48.547Z,98819.95
2019-03-10T06:53:19.467Z,98811.64
2019-03-10T06:55:50.239Z,98815.15
2019-03-10T06:58:21.098Z,98801.96
2019-03-10T07:00:52.799Z,98798.05
2019-03-10T07:03:24.538Z,98783.12
2019-03-10T07:05:56.442Z,98780.89
2019-03-10T07:08:27.342Z,98783.25
2019-03-10T07:10:58.182Z,98772.58
2019-03-10T07:13:30.011Z,98762.87
2019-03-10T07:16:02.732Z,98763.38
2019-03-10T07:18:33.741Z,98760.10
2019-03-10T07:21:04.570Z,98742.53
2019-03-10T07:23:34.563Z,98756.69
2019-03-10T07:26:08.980Z,98756.69
2019-03-10T07:29:04.191Z,98760.13
2019-03-10T07:31:50.371Z,98760.13
2019-03-10T07:34:40.715Z,98760.03
2019-03-10T07:37:29.539Z,98737.14
2019-03-10T07:40:28.149Z,98743.36
2019-03-10T07:43:17.587Z,98752.81
2019-03-10T07:46:10.614Z,98742.85
2019-03-10T07:48:52.191Z,98735.75
2019-03-10T07:51:39.524Z,98735.75
2019-03-10T07:54:29.916Z,98732.52
2019-03-10T07:57:18.396Z,98721.50
2019-03-10T08:00:06.373Z,98711.56
2019-03-10T08:02:45.748Z,98706.44
2019-03-10T08:05:33.661Z,98693.16
2019-03-10T08:08:16.260Z,98695.51
2019-03-10T08:10:59.044Z,98697.41
2019-03-10T08:13:49.841Z,98701.15
2019-03-10T08:16:48.613Z,98693.48
2019-03-10T08:19:50.799Z,98683.30
2019-03-10T08:22:40.404Z,98679.25
2019-03-10T08:25:39.198Z,98666.98
2019-03-10T08:28:28.050Z,98659.36
2019-03-10T08:31:32.991Z,98655.48
2019-03-10T08:34:22.726Z,98647.84
2019-03-10T08:37:21.680Z,98647.84
2019-03-10T08:40:19.367Z,98655.03
2019-03-10T08:43:16.118Z,98651.52
2019-03-10T08:46:14.875Z,98643.29
2019-03-10T08:49:03.410Z,98637.43
2019-03-10T08:51:46.259Z,98637.43
2019-03-10T08:54:41.497Z,98634.72
2019-03-10T08:57:26.639Z,98638.78
2019-03-10T09:00:17.790Z,98646.28
2019-03-10T09:03:20.201Z,98637.55
2019-03-10T09:06:05.948Z,98640.02
2019-03-10T09:09:02.598Z,98628.39
2019-03-10T09:11:45.283Z,98631.40
2019-03-10T09:14:41.260Z,98618.81
2019-03-10T09:17:47.393Z,98621.61
2019-03-10T09:20:47.333Z,98619.30
2019-03-10T09:23:45.303Z,98612.28
2019-03-10T09:26:26.134Z,98601.41
2019-03-10T09:29:14.867Z,98599.07
2019-03-10T09:32:15.870Z,98586.44
2019-03-10T09:34:59.974Z,98586.22
2019-03-10T09:37:47.907Z,98574.75
2019-03-10T09:40:46.723Z,98572.37
2019-03-10T09:43:37.372Z,98565.44
2019-03-10T09:46:34.536Z,98561.57
2019-03-10T09:49:15.194Z,98551.22
2019-03-10T09:51:58.500Z,98544.95
2019-03-10T09:55:01.890Z,98538.02
2019-03-10T09:57:54.508Z,98529.87
2019-03-10T10:00:48.078Z,98524.17
2019-03-10T10:03:39.613Z,98526.08
2019-03-10T10:06:25.208Z,98499.41
2019-03-10T10:09:35.883Z,98509.22
2019-03-10T10:12:31.488Z,98513.87
2019-03-10T10:15:27.447Z,98527.48
2019-03-10T10:18:18.463Z,98536.72
2019-03-10T10:21:26.176Z,98534.61
2019-03-10T10:24:12.595Z,98539.38
2019-03-10T10:26:53.916Z,98553.28
2019-03-10T10:29:59.406Z,98526.25
2019-03-10T10:33:00.770Z,98501.52
2019-03-10T10:36:01.428Z,98513.95
2019-03-10T10:38:49.779Z,98515.66
2019-03-10T10:41:41.067Z,98504.20
2019-03-10T10:44:35.825Z,98512.96
2019-03-10T10:47:27.901Z,98515.72
2019-03-10T10:50:35.573Z,98506.46
2019-03-10T10:53:35.076Z,98503.19
2019-03-10T10:56:28.775Z,98503.19
2019-03-10T10:59:19.250Z,98501.09
2019-03-10T11:02:09.412Z,98492.09
2019-03-10T11:05:07.159Z,98478.17
2019-03-10T11:08:00.989Z,98473.30
2019-03-10T11:10:55.772Z,98493.52
2019-03-10T11:13:45.294Z,98494.17
2019-03-10T11:16:39.535Z,98475.43
2019-03-10T11:19:17.076Z,98493.91
2019-03-10T11:22:09.719Z,98505.30
2019-03-10T11:24:49.546Z,98486.94
2019-03-10T11:27:32.045Z,98476.20
2019-03-10T11:30:37.578Z,98488.81
2019-03-10T11:33:16.884Z,98467.89
2019-03-10T11:36:11.984Z,98495.88
2019-03-10T11:39:12.004Z,98461.84
2019-03-10T11:41:51.574Z,98460.69
2019-03-10T11:44:41.065Z,98459.16
2019-03-10T11:47:28.970Z,98470.81
2019-03-10T11:50:21.752Z,98470.70
2019-03-10T11:53:03.436Z,98473.05
2019-03-10T11:55:53.295Z,98453.52
2019-03-10T11:58:54.753Z,98475.30
2019-03-10T12:01:55.278Z,98481.17
2019-03-10T12:04:47.762Z,98475.12
2019-03-10T12:07:51.881Z,98497.39
2019-03-10T12:10:29.335Z,98519.31
2019-03-10T12:13:04.593Z,98482.25
2019-03-10T12:15:38.604Z,98485.84
2019-03-10T12:18:10.599Z,98489.58
2019-03-10T12:20:42.881Z,98475.91
2019-03-10T12:23:15.085Z,98473.95
2019-03-10T12:25:56.248Z,98492.86
2019-03-10T12:28:29.433Z,98498.97
2019-03-10T12:31:03.374Z,98498.97
2019-03-10T12:33:38.316Z,98485.11
2019-03-10T12:36:11.193Z,98471.80
2019-03-10T12:38:45.632Z,98457.23
2019-03-10T12:41:17.624Z,98402.97
2019-03-10T12:43:48.583Z,98448.10
2019-03-10T12:46:27.048Z,98403.06
2019-03-10T12:49:00.059Z,98440.21
2019-03-10T12:51:32.212Z,98432.13
2019-03-10T12:54:07.370Z,98428.31
2019-03-10T12:56:45.867Z,98427.79
2019-03-10T12:59:21.855Z,98444.42
2019-03-10T13:02:04.057Z,98438.29
2019-03-10T13:04:36.945Z,98436.20
2019-03-10T13:07:10.086Z,98432.95
2019-03-10T13:09:52.873Z,98445.70
2019-03-10T13:12:24.745Z,98437.32
2019-03-10T13:15:06.730Z,98444.66
2019-03-10T13:17:38.428Z,98432.62
2019-03-10T13:20:13.580Z,98432.28
2019-03-10T13:22:45.819Z,98443.48
2019-03-10T13:25:20.542Z,98413.92
2019-03-10T13:27:54.343Z,98440.72
2019-03-10T13:30:31.657Z,98450.14
2019-03-10T13:33:06.100Z,98456.91
2019-03-10T13:35:39.360Z,98447.42
2019-03-10T13:38:10.778Z,98457.13
2019-03-10T13:40:42.708Z,98458.42
2019-03-10T13:43:14.436Z,98473.47
2019-03-10T13:45:46.147Z,98530.63
2019-03-10T13:48:22.072Z,98488.43
2019-03-10T13:50:53.935Z,98466.93
2019-03-10T13:53:30.486Z,98496.33
2019-03-10T13:56:05.345Z,98514.32
2019-03-10T13:58:48.775Z,98514.32
2019-03-10T14:01:25.484Z,98470.75
2019-03-10T14:04:05.215Z,98512.97
2019-03-10T14:06:36.749Z,98525.48
2019-03-10T14:09:09.979Z,98486.08
2019-03-10T14:11:49.200Z,98562.81
2019-03-10T14:14:24.368Z,98559.89
2019-03-10T14:16:55.659Z,98541.47
2019-03-10T14:19:28.694Z,98564.98
2019-03-10T14:21:59.674Z,98597.70
2019-03-10T14:24:35.378Z,98595.38
2019-03-10T14:27:07.715Z,98609.17
2019-03-10T14:29:46.985Z,98611.20
2019-03-10T14:32:20.162Z,98611.20
2019-03-10T14:34:54.749Z,98608.16
2019-03-10T14:37:29.052Z,98626.80
2019-03-10T14:40:09.402Z,98626.80
2019-03-10T14:42:43.265Z,98598.76
2019-03-10T14:45:25.303Z,98645.98
2019-03-10T14:48:09.047Z,98649.48
2019-03-10T14:50:37.911Z,98649.48
2019-03-10T14:53:09.798Z,98655.98
2019-03-10T14:55:42.459Z,98655.98
2019-03-10T14:58:15.617Z,98677.29
2019-03-10T15:00:48.511Z,98677.29
2019-03-10T15:03:26.075Z,98658.75
2019-03-10T15:06:02.543Z,98692.64
2019-03-10T15:08:35.822Z,98729.95
2019-03-10T15:11:13.872Z,98700.69
2019-03-10T15:13:47.481Z,98700.69
2019-03-10T15:16:20.410Z,98721.20
2019-03-10T15:18:54.177Z,98714.38
2019-03-10T15:21:26.736Z,98747.52
2019-03-10T15:24:01.503Z,98751.31
2019-03-10T15:26:44.928Z,98743.22
2019-03-10T15:29:17.007Z,98741.90
2019-03-10T15:31:47.147Z,98761.73
2019-03-10T15:34:24.708Z,98744.15
2019-03-10T15:36:58.323Z,98758.66
2019-03-10T15:39:36.451Z,98774.34
2019-03-10T15:42:08.708Z,98763.91
2019-03-10T15:44:41.852Z,98757.80
2019-03-10T15:47:19.164Z,98806.34
2019-03-10T15:49:56.287Z,98790.39
2019-03-10T15:52:28.195Z,98712.33
2019-03-10T15:55:09.701Z,98809.58
2019-03-10T15:57:50.319Z,98830.56
2019-03-10T16:00:22.025Z,98835.76
2019-03-10T16:02:55.383Z,98835.08
2019-03-10T16:05:27.643Z,98858.98
2019-03-10T16:08:00.821Z,98847.80
2019-03-10T16:10:37.899Z,98827.25
2019-03-10T16:13:14.856Z,98883.73
2019-03-10T16:15:46.758Z,98856.46
2019-03-10T16:18:24.235Z,98907.20
2019-03-10T16:20:56.130Z,98879.33
2019-03-10T16:23:30.291Z,98896.06
2019-03-10T16:26:11.110Z,98900.44
2019-03-10T16:28:48.062Z,98899.88
2019-03-10T16:31:23.491Z,98900.31
2019-03-10T16:34:01.150Z,98908.80
2019-03-10T16:36:37.412Z,98925.20
2019-03-10T16:39:12.816Z,98870.06
2019-03-10T16:41:46.484Z,98918.40
2019-03-10T16:44:19.651Z,98929.16
2019-03-10T16:46:55.592Z,98954.52
2019-03-10T16:49:27.981Z,98961.88
2019-03-10T16:52:03.988Z,98972.61
2019-03-10T16:54:37.472Z,98961.45
2019-03-10T16:57:12.258Z,98974.30
2019-03-10T16:59:47.833Z,98983.02
2019-03-10T17:02:22.679Z,98957.68
2019-03-10T17:04:54.441Z,98980.45
2019-03-10T17:07:30.028Z,98985.19
2019-03-10T17:10:03.365Z,98965.87
2019-03-10T17:12:38.527Z,99005.59
2019-03-10T17:15:18.509Z,99010.30
2019-03-10T17:17:54.527Z,99014.48
2019-03-10T17:20:29.164Z,99027.33
2019-03-10T17:23:20.990Z,99026.71
2019-03-10T17:25:55.178Z,99038.45
2019-03-10T17:28:26.149Z,99043.61
2019-03-10T17:31:00.843Z,99058.41
2019-03-10T17:33:31.766Z,99058.41
2019-03-10T17:36:04.761Z,99080.28
2019-03-10T17:38:43.261Z,99103.69
2019-03-10T17:41:19.188Z,99133.03
2019-03-10T17:43:52.064Z,99149.01
2019-03-10T17:46:23.835Z,99172.70
2019-03-10T17:49:00.631Z,99217.06
2019-03-10T17:51:54.245Z,99214.70
2019-03-10T17:54:20.616Z,99230.23
2019-03-10T17:56:57.129Z,99260.81
2019-03-10T17:59:33.909Z,99285.13
2019-03-10T18:02:10.080Z,99300.90
2019-03-10T18:04:47.185Z,99306.13
2019-03-10T18:07:23.167Z,99319.41
2019-03-10T18:09:58.444Z,99318.30
2019-03-10T18:12:30.287Z,99312.31
2019-03-10T18:17:57.755Z,99335.42
2019-03-10T18:20:48.602Z,99343.69
2019-03-10T18:23:20.386Z,99351.50
2019-03-10T18:26:27.125Z,99344.20
2019-03-10T18:28:46.295Z,99339.11
2019-03-10T18:37:37.462Z,99354.56
2019-03-10T18:40:12.653Z,99364.70
2019-03-10T18:42:43.670Z,99389.73
2019-03-10T18:48:26.860Z,99391.05
2019-03-10T18:51:51.506Z,99406.30
2019-03-10T18:54:10.374Z,99404.47
2019-03-10T18:57:20.170Z,99425.58
2019-03-10T18:59:54.555Z,99435.23
2019-03-10T19:02:27.706Z,99417.06
2019-03-10T19:04:59.373Z,99424.02
2019-03-10T19:07:31.173Z,99422.98
2019-03-10T19:10:37.418Z,99438.04
2019-03-10T19:15:59.068Z,99448.38
2019-03-10T19:21:53.530Z,99450.94
2019-03-10T19:24:40.709Z,99451.82
2019-03-10T19:27:31.441Z,99451.82
2019-03-10T19:33:15.559Z,99475.66
2019-03-10T19:39:01.929Z,99465.30
2019-03-10T19:45:42.301Z,99495.50
2019-03-10T19:49:08.269Z,99514.52
2019-03-10T19:51:47.910Z,99523.16
2019-03-10T19:54:55.342Z,99538.66
2019-03-10T20:00:59.207Z,99543.06
2019-03-10T20:03:31.305Z,99553.36
2019-03-10T20:06:22.349Z,99561.42
2019-03-10T20:09:13.533Z,99563.73
2019-03-10T20:14:54.535Z,99592.37
2019-03-10T20:17:26.496Z,99568.77
2019-03-10T20:20:39.792Z,99549.67
2019-03-10T20:23:11.286Z,99583.23
2019-03-10T20:26:02.035Z,99596.31
2019-03-10T20:31:38.192Z,99605.84
2019-03-10T20:34:31.175Z,99618.02
2019-03-10T20:40:56.594Z,99633.98
2019-03-10T20:43:47.360Z,99626.80
2019-03-10T20:46:30.645Z,99649.43
2019-03-10T20:52:08.705Z,99658.97
2019-03-10T20:57:23.949Z,99663.81
2019-03-10T21:02:43.476Z,99636.84
2019-03-10T21:05:34.243Z,99696.59
2019-03-10T21:10:48.559Z,99694.27
2019-03-10T21:13:19.328Z,99706.16
2019-03-10T21:15:52.061Z,99715.39
2019-03-10T21:25:38.891Z,99724.84
2019-03-10T21:31:10.248Z,99722.98
2019-03-10T21:34:01.290Z,99731.77
2019-03-10T21:36:53.120Z,99730.56
2019-03-10T21:39:34.129Z,99738.75
2019-03-10T21:42:15.636Z,99749.16
2019-03-10T21:45:06.477Z,99755.53
2019-03-10T21:56:57.315Z,99784.09
2019-03-10T22:00:07.102Z,99772.11
2019-03-10T22:03:31.159Z,99789.92
2019-03-10T22:09:12.453Z,99852.12
2019-03-10T22:12:21.192Z,99896.65
2019-03-10T22:21:02.033Z,99845.23
2019-03-10T22:23:59.330Z,99856.16
2019-03-10T22:26:32.209Z,99852.36
2019-03-10T22:29:44.164Z,99880.27
2019-03-10T22:35:25.429Z,99845.94
2019-03-10T22:38:08.335Z,99865.56
2019-03-10T22:41:10.908Z,99885.20
2019-03-10T22:43:33.877Z,99908.16
2019-03-10T22:49:15.357Z,99907.52
2019-03-10T22:51:47.417Z,99887.73
2019-03-10T22:54:37.211Z,99878.27
2019-03-10T23:00:26.682Z,99872.00
2019-03-10T23:03:35.790Z,99873.19
2019-03-10T23:06:26.608Z,99869.23
2019-03-10T23:09:16.549Z,99871.54
2019-03-10T23:12:06.149Z,99857.02
2019-03-10T23:14:53.269Z,99858.48
2019-03-10T23:17:25.192Z,99867.64
2019-03-10T23:19:56.970Z,99859.73
2019-03-10T23:25:38.495Z,99866.04
2019-03-10T23:28:28.089Z,99860.09
2019-03-10T23:31:18.847Z,99868.62
2019-03-10T23:33:50.838Z,99864.65
2019-03-10T23:36:22.885Z,99870.11
2019-03-10T23:38:54.590Z,99865.02
2019-03-10T23:41:45.349Z,99865.52
2019-03-10T23:44:36.210Z,99853.56
2019-03-10T23:47:26.161Z,99849.94
2019-03-10T23:49:56.999Z,99852.23
2019-03-10T23:52:29.276Z,99846.10
2019-03-10T23:55:20.080Z,99845.27
2019-03-10T23:57:51.845Z,99845.45
